Time;durP1;ratioP1;P1;durP2;ratioP2;P2;SDS_P1;SDS_P2;PMS_P1;PMS_P2;Temp;Humidity;BMP_temperature;BMP_pressure;BME280_temperature;BME280_humidity;BME280_pressure;Samples;Min_cycle;Max_cycle;Signal;HPM_P1;HPM_P2
2022/12/19 00:01:36;;;;;;;5.45;3.28;;;;;;;10.61;100.00;98559.19;5048323;28;20049;-42
2022/12/19 00:04:06;;;;;;;5.28;1.67;;;;;;;10.63;100.00;98575.38;5046491;28;20053;-40
2022/12/19 00:06:35;;;;;;;4.10;1.67;;;;;;;10.66;100.00;98569.84;5044336;28;20342;-40
2022/12/19 00:09:02;;;;;;;6.47;1.92;;;;;;;10.69;100.00;98568.28;5046154;28;20047;-43
2022/12/19 00:11:29;;;;;;;8.35;2.13;;;;;;;10.69;100.00;98551.66;5037041;28;20144;-45
2022/12/19 00:13:56;;;;;;;11.75;2.47;;;;;;;10.69;100.00;98559.97;5042777;28;20049;-41
2022/12/19 00:16:25;;;;;;;12.20;2.42;;;;;;;10.69;100.00;98548.91;5045024;28;20453;-42
2022/12/19 00:18:54;;;;;;;7.03;1.67;;;;;;;10.66;100.00;98544.16;5045382;28;20059;-40
2022/12/19 00:21:23;;;;;;;8.02;2.10;;;;;;;10.63;100.00;98544.94;5045398;28;20402;-39
2022/12/19 00:23:51;;;;;;;4.88;1.58;;;;;;;10.64;100.00;98538.25;5048150;28;20049;-42
2022/12/19 00:26:20;;;;;;;8.50;2.25;;;;;;;10.64;100.00;98544.56;5048155;28;20048;-43
2022/12/19 00:28:50;;;;;;;10.38;2.28;;;;;;;10.66;100.00;98542.19;5049029;28;20411;-40
2022/12/19 00:31:18;;;;;;;7.00;1.40;;;;;;;10.70;100.00;98542.94;5048715;28;20402;-40
2022/12/19 00:33:46;;;;;;;7.43;1.45;;;;;;;10.75;100.00;98550.84;5048943;28;20076;-40
2022/12/19 00:36:19;;;;;;;8.93;2.50;;;;;;;10.74;100.00;98532.69;5047329;28;20049;-40
2022/12/19 00:38:50;;;;;;;6.85;1.15;;;;;;;10.76;100.00;98521.19;5038992;28;20033;-40
2022/12/19 00:41:24;;;;;;;4.60;1.13;;;;;;;10.79;100.00;98528.69;5047830;28;20388;-41
2022/12/19 00:44:15;;;;;;;9.50;2.28;;;;;;;10.81;100.00;98534.63;5050456;28;20049;-40
2022/12/19 00:46:42;;;;;;;3.42;1.35;;;;;;;10.79;100.00;98518.41;5048112;28;20037;-41
2022/12/19 00:49:18;;;;;;;6.28;1.90;;;;;;;10.79;100.00;98520.41;5048216;28;20403;-45
2022/12/19 00:51:45;;;;;;;4.85;1.48;;;;;;;10.78;100.00;98516.84;5034992;28;20060;-42
2022/12/19 00:54:13;;;;;;;6.00;1.83;;;;;;;10.77;100.00;98525.56;5047050;28;20057;-45
2022/12/19 00:56:40;;;;;;;8.63;2.25;;;;;;;10.76;100.00;98510.13;5030705;28;20059;-41
2022/12/19 00:59:09;;;;;;;6.57;2.05;;;;;;;10.77;100.00;98522.78;5048193;28;20053;-41
2022/12/19 01:01:40;;;;;;;6.97;2.22;;;;;;;10.76;100.00;98518.41;5051119;28;20051;-41
2022/12/19 01:04:12;;;;;;;7.13;2.00;;;;;;;10.76;100.00;98515.66;5047083;28;20045;-42
2022/12/19 01:06:58;;;;;;;8.55;1.80;;;;;;;10.75;100.00;98500.25;5045774;28;20056;-40
2022/12/19 01:09:29;;;;;;;7.35;1.80;;;;;;;10.77;100.00;98497.88;5048056;28;20141;-41
2022/12/19 01:14:41;;;;;;;6.57;1.45;;;;;;;10.80;100.00;98514.44;5047647;28;20095;-41
2022/12/19 01:17:08;;;;;;;5.93;0.95;;;;;;;10.81;100.00;98504.97;5047585;28;20048;-41
2022/12/19 01:19:35;;;;;;;10.07;3.63;;;;;;;10.86;100.00;98489.91;5040439;28;20065;-41
2022/12/19 01:22:09;;;;;;;7.00;1.17;;;;;;;10.90;100.00;98476.88;5047689;28;20091;-41
2022/12/19 01:24:36;;;;;;;9.05;1.60;;;;;;;10.93;100.00;98462.22;5048056;28;20049;-41
2022/12/19 01:27:03;;;;;;;5.35;1.70;;;;;;;10.95;100.00;98448.75;5047597;28;20591;-40
2022/12/19 01:29:31;;;;;;;10.55;3.65;;;;;;;10.95;100.00;98476.44;5046626;28;20076;-41
2022/12/19 01:32:00;;;;;;;10.85;2.10;;;;;;;10.89;100.00;98489.13;5029433;28;20048;-42
2022/12/19 01:34:26;;;;;;;10.35;2.05;;;;;;;10.83;100.00;98490.72;5046492;28;20045;-44
2022/12/19 01:36:53;;;;;;;9.85;2.38;;;;;;;10.75;100.00;98484.41;5037108;28;20079;-42
2022/12/19 01:39:20;;;;;;;11.02;2.58;;;;;;;10.72;100.00;98489.97;5047331;28;20059;-43
2022/12/19 01:41:49;;;;;;;16.90;2.40;;;;;;;10.72;100.00;98507.34;5047635;28;20049;-42
2022/12/19 01:44:16;;;;;;;10.27;2.40;;;;;;;10.67;100.00;98485.63;5038084;28;20445;-43
2022/12/19 01:46:56;;;;;;;14.18;2.70;;;;;;;10.63;100.00;98503.44;5025667;28;20403;-41
2022/12/19 01:49:35;;;;;;;22.48;3.17;;;;;;;10.58;100.00;98495.56;5034575;28;20061;-42
2022/12/19 01:52:05;;;;;;;14.27;3.95;;;;;;;10.55;100.00;98499.13;5047107;28;20059;-43
2022/12/19 01:54:39;;;;;;;15.40;2.67;;;;;;;10.54;100.00;98481.72;5047065;28;20048;-41
2022/12/19 01:57:11;;;;;;;4.97;0.95;;;;;;;10.63;100.00;98481.31;5029185;28;20120;-41
2022/12/19 01:59:42;;;;;;;8.13;1.70;;;;;;;10.69;100.00;98488.00;5047472;28;20128;-41
2022/12/19 02:02:16;;;;;;;13.63;2.17;;;;;;;10.68;100.00;98494.72;5049639;28;20123;-41
2022/12/19 02:04:45;;;;;;;11.88;2.10;;;;;;;10.66;100.00;98497.13;5045530;28;20292;-42
2022/12/19 02:07:13;;;;;;;13.80;2.55;;;;;;;10.64;100.00;98496.72;5045970;28;20530;-40
2022/12/19 02:09:47;;;;;;;17.02;3.03;;;;;;;10.61;100.00;98494.75;5046738;28;20127;-41
2022/12/19 02:12:24;;;;;;;14.60;3.47;;;;;;;10.60;100.00;98498.69;5046759;28;20054;-41
2022/12/19 02:14:55;;;;;;;12.02;2.10;;;;;;;10.58;100.00;98498.31;5029135;28;20061;-40
2022/12/19 02:17:50;;;;;;;9.48;2.40;;;;;;;10.57;100.00;98493.97;5046317;28;20519;-41
2022/12/19 02:20:56;;;;;;;11.73;2.15;;;;;;;10.57;100.00;98488.44;5036272;28;20098;-41
2022/12/19 02:23:25;;;;;;;13.93;2.30;;;;;;;10.55;100.00;98493.59;5046715;28;20051;-40
2022/12/19 02:25:58;;;;;;;18.60;2.67;;;;;;;10.53;100.00;98494.00;5046433;28;20056;-42
2022/12/19 02:28:36;;;;;;;32.15;5.38;;;;;;;10.52;100.00;98491.59;5046899;28;20040;-42
2022/12/19 02:31:32;;;;;;;19.95;4.38;;;;;;;10.49;100.00;98500.69;5046598;28;20392;-44
2022/12/19 02:34:01;;;;;;;19.83;5.55;;;;;;;10.50;100.00;98505.06;5046473;28;20099;-46
2022/12/19 02:36:37;;;;;;;21.48;3.50;;;;;;;10.48;100.00;98502.69;5044446;28;20049;-41
2022/12/19 02:39:23;;;;;;;32.85;4.45;;;;;;;10.46;100.00;98498.75;5042632;28;20064;-40
2022/12/19 02:41:55;;;;;;;19.40;4.68;;;;;;;10.44;100.00;98487.28;5046431;28;20499;-42
2022/12/19 02:44:25;;;;;;;29.58;7.20;;;;;;;10.40;100.00;98490.84;5055312;28;20037;-48
2022/12/19 02:46:52;;;;;;;29.70;5.28;;;;;;;10.37;100.00;98477.03;5046695;28;20135;-42
2022/12/19 02:49:19;;;;;;;19.67;4.18;;;;;;;10.35;100.00;98482.94;5033132;28;20048;-43
2022/12/19 02:51:56;;;;;;;28.85;4.22;;;;;;;10.35;100.00;98476.66;5046153;28;20388;-41
2022/12/19 02:54:24;;;;;;;30.75;6.22;;;;;;;10.33;100.00;98467.94;5045502;28;20411;-40
2022/12/19 02:56:59;;;;;;;20.10;4.90;;;;;;;10.31;100.00;98465.59;5046328;28;20388;-40
2022/12/19 02:59:34;;;;;;;30.02;4.00;;;;;;;10.31;100.00;98464.78;5046307;28;20525;-40
2022/12/19 03:02:20;;;;;;;30.15;4.25;;;;;;;10.32;100.00;98472.72;5070195;22;20498;-41
2022/12/19 03:05:04;;;;;;;23.70;4.50;;;;;;;10.32;100.00;98464.41;5025977;28;20044;-39
2022/12/19 03:08:02;;;;;;;12.88;3.47;;;;;;;10.34;100.00;98456.50;4997972;28;20514;-40
2022/12/19 03:11:01;;;;;;;16.13;3.20;;;;;;;10.37;100.00;98452.16;5019743;28;20045;-41
2022/12/19 03:13:39;;;;;;;12.63;3.67;;;;;;;10.37;100.00;98450.19;5016165;28;20045;-40
2022/12/19 03:16:09;;;;;;;15.38;3.25;;;;;;;10.38;100.00;98454.50;5026269;28;20407;-41
2022/12/19 03:18:37;;;;;;;16.92;3.17;;;;;;;10.39;100.00;98450.56;5006602;28;20037;-40
2022/12/19 03:21:03;;;;;;;16.02;3.17;;;;;;;10.40;100.00;98440.28;5019495;28;20053;-42
2022/12/19 03:23:30;;;;;;;29.85;4.43;;;;;;;10.38;100.00;98448.97;5026355;28;20087;-39
2022/12/19 03:26:05;;;;;;;14.15;3.13;;;;;;;10.38;100.00;98437.09;5026243;28;20061;-48
2022/12/19 03:28:46;;;;;;;18.45;2.88;;;;;;;10.38;100.00;98443.44;5028821;28;20040;-41
2022/12/19 03:31:16;;;;;;;18.83;4.05;;;;;;;10.39;100.00;98450.56;5030251;28;20072;-40
2022/12/19 03:33:46;;;;;;;17.63;3.65;;;;;;;10.39;100.00;98439.50;5029828;28;20123;-40
2022/12/19 03:36:20;;;;;;;24.40;4.82;;;;;;;10.40;100.00;98460.41;5027945;28;20136;-44
2022/12/19 03:38:48;;;;;;;23.98;4.10;;;;;;;10.40;100.00;98454.13;5029663;28;20041;-40
2022/12/19 03:43:07;;;;;;;17.83;3.38;;;;;;;10.40;100.00;98435.53;5029629;28;20057;-41
2022/12/19 03:44:07;;;;;;;33.10;4.30;;;;;;;10.42;100.00;98434.34;5029053;28;20140;-40
2022/12/19 03:46:40;;;;;;;21.73;3.58;;;;;;;10.42;100.00;98431.56;5029588;28;20076;-40
2022/12/19 03:49:07;;;;;;;13.70;3.40;;;;;;;10.44;100.00;98429.19;5029319;28;20052;-42
2022/12/19 03:51:56;;;;;;;32.75;5.22;;;;;;;10.46;100.00;98422.06;5029499;28;20053;-44
2022/12/19 03:54:33;;;;;;;15.73;3.92;;;;;;;10.48;100.00;98429.97;5029284;28;20048;-43
2022/12/19 03:57:23;;;;;;;27.13;4.68;;;;;;;10.48;100.00;98419.72;5029176;28;20053;-40
2022/12/19 03:59:58;;;;;;;24.85;4.63;;;;;;;10.52;100.00;98425.22;5028530;28;20076;-45
2022/12/19 04:02:26;;;;;;;20.85;4.50;;;;;;;10.55;100.00;98419.69;5016479;28;20057;-40
2022/12/19 04:04:58;;;;;;;16.42;3.28;;;;;;;10.58;100.00;98420.84;5029427;28;20439;-41
2022/12/19 04:07:25;;;;;;;;;;;;;;;10.58;100.00;98412.56;5029664;28;20144;-42
2022/12/19 04:09:54;;;;;;;12.05;2.30;;;;;;;10.61;100.00;98412.53;5029057;28;20440;-42
2022/12/19 04:12:28;;;;;;;9.77;1.92;;;;;;;10.67;100.00;98421.22;5029095;28;20049;-42
2022/12/19 04:14:55;;;;;;;15.30;4.20;;;;;;;10.76;100.00;98416.03;5029194;28;20051;-42
2022/12/19 04:17:30;;;;;;;16.83;2.03;;;;;;;10.80;100.00;98430.66;5028959;28;20045;-40
2022/12/19 04:20:02;;;;;;;10.85;2.63;;;;;;;10.83;100.00;98436.16;5019404;28;20252;-41
2022/12/19 04:22:48;;;;;;;12.07;2.10;;;;;;;10.84;100.00;98421.13;5011301;28;20076;-41
2022/12/19 04:25:18;;;;;;;4.93;1.05;;;;;;;10.94;100.00;98419.47;5028781;28;20050;-41
2022/12/19 04:27:51;;;;;;;6.10;0.90;;;;;;;11.04;100.00;98407.56;5027589;28;20061;-40
2022/12/19 04:30:18;;;;;;;7.47;1.38;;;;;;;11.14;100.00;98408.69;5028952;28;20049;-41
2022/12/19 04:32:46;;;;;;;3.90;0.98;;;;;;;11.19;100.00;98411.84;5028557;28;20037;-40
2022/12/19 04:35:13;;;;;;;5.93;1.20;;;;;;;11.31;100.00;98400.25;5027813;28;20498;-42
2022/12/19 04:37:40;;;;;;;5.60;1.00;;;;;;;11.40;100.00;98408.91;5028559;28;20052;-42
2022/12/19 04:40:08;;;;;;;4.60;1.13;;;;;;;11.48;100.00;98402.13;5028191;28;20065;-43
2022/12/19 04:42:35;;;;;;;9.00;1.38;;;;;;;11.56;100.00;98400.06;5028458;28;20075;-41
2022/12/19 04:45:03;;;;;;;7.57;0.98;;;;;;;11.62;100.00;98393.66;5028590;28;20041;-42
2022/12/19 04:47:30;;;;;;;10.57;2.97;;;;;;;11.63;100.00;98403.56;5028673;28;20446;-41
2022/12/19 04:49:57;;;;;;;21.98;3.22;;;;;;;11.56;100.00;98386.22;5028792;28;20053;-41
2022/12/19 04:52:24;;;;;;;21.45;3.72;;;;;;;11.45;100.00;98393.81;5010680;28;20045;-44
2022/12/19 04:54:50;;;;;;;14.48;2.90;;;;;;;11.35;100.00;98384.41;5029114;28;20047;-41
2022/12/19 04:57:17;;;;;;;19.13;3.85;;;;;;;11.26;100.00;98397.91;5028139;28;20056;-41
2022/12/19 04:59:44;;;;;;;21.83;3.65;;;;;;;11.18;100.00;98384.53;5028573;28;20052;-47
2022/12/19 05:02:10;;;;;;;17.60;4.00;;;;;;;11.10;100.00;98378.25;5028491;28;20041;-45
2022/12/19 05:04:37;;;;;;;20.15;3.35;;;;;;;11.05;100.00;98372.34;5028448;28;20501;-41
2022/12/19 05:07:04;;;;;;;15.90;3.33;;;;;;;11.02;100.00;98382.25;5028635;28;20050;-40
2022/12/19 05:09:30;;;;;;;18.05;2.97;;;;;;;10.99;100.00;98372.78;5027532;28;20045;-45
2022/12/19 05:11:57;;;;;;;14.68;2.95;;;;;;;10.97;100.00;98379.91;5028256;28;20386;-41
2022/12/19 05:14:24;;;;;;;18.13;3.05;;;;;;;10.95;100.00;98354.63;5028462;28;20041;-40
2022/12/19 05:16:50;;;;;;;18.25;4.13;;;;;;;10.94;100.00;98375.19;5027945;28;20511;-42
2022/12/19 05:19:25;;;;;;;23.88;3.50;;;;;;;10.93;100.00;98376.41;5019417;28;20132;-41
2022/12/19 05:21:52;;;;;;;20.95;4.38;;;;;;;10.91;100.00;98381.53;5022565;28;20527;-41
2022/12/19 05:24:19;;;;;;;15.55;3.33;;;;;;;10.89;100.00;98364.53;5028129;28;20068;-44
2022/12/19 05:26:48;;;;;;;19.58;4.13;;;;;;;10.87;100.00;98366.94;5027160;28;20049;-42
2022/12/19 05:29:16;;;;;;;19.45;4.28;;;;;;;10.85;100.00;98366.56;5026683;28;20069;-40
2022/12/19 05:31:43;;;;;;;20.42;4.10;;;;;;;10.83;100.00;98357.84;5027837;28;20057;-47
2022/12/19 05:34:10;;;;;;;17.45;3.80;;;;;;;10.82;100.00;98356.28;5028089;28;20061;-41
2022/12/19 05:36:37;;;;;;;33.95;4.50;;;;;;;10.80;100.00;98355.91;5027332;28;20033;-40
2022/12/19 05:39:04;;;;;;;25.60;4.82;;;;;;;10.78;100.00;98349.97;5027524;28;20049;-41
2022/12/19 05:41:31;;;;;;;18.75;3.92;;;;;;;10.75;100.00;98348.03;5027452;28;20084;-42
2022/12/19 05:43:57;;;;;;;25.00;4.40;;;;;;;10.72;100.00;98346.09;5019377;28;20507;-46
2022/12/19 05:46:26;;;;;;;21.55;6.65;;;;;;;10.69;100.00;98338.59;5027364;28;20057;-42
2022/12/19 05:48:53;;;;;;;17.85;4.68;;;;;;;10.68;100.00;98348.06;5027129;28;20499;-42
2022/12/19 05:51:21;;;;;;;20.08;3.45;;;;;;;10.67;100.00;98349.28;5027273;28;20049;-45
2022/12/19 05:53:47;;;;;;;19.70;3.13;;;;;;;10.65;100.00;98346.09;5027274;28;20061;-41
2022/12/19 05:56:20;;;;;;;18.98;4.18;;;;;;;10.65;100.00;98343.34;5027342;28;20050;-41
2022/12/19 05:58:47;;;;;;;20.52;3.85;;;;;;;10.65;100.00;98335.03;5025543;28;20041;-44
2022/12/19 06:01:23;;;;;;;27.70;3.70;;;;;;;10.65;100.00;98346.09;5025876;28;20096;-43
2022/12/19 06:03:50;;;;;;;16.98;3.13;;;;;;;10.64;100.00;98350.06;5025776;28;20133;-46
2022/12/19 06:06:21;;;;;;;17.45;3.67;;;;;;;10.64;100.00;98339.81;5009257;28;20061;-41
2022/12/19 06:08:52;;;;;;;30.48;4.35;;;;;;;10.64;100.00;98325.19;5027082;28;20514;-41
2022/12/19 06:11:19;;;;;;;23.48;4.47;;;;;;;10.64;100.00;98334.28;5026993;28;20056;-43
2022/12/19 06:13:46;;;;;;;20.88;4.10;;;;;;;10.66;100.00;98320.81;5026999;28;20069;-41
2022/12/19 06:16:16;;;;;;;21.15;5.47;;;;;;;10.67;100.00;98316.06;5027059;28;20053;-40
2022/12/19 06:18:44;;;;;;;22.42;3.88;;;;;;;10.67;100.00;98316.84;5023196;28;20490;-40
2022/12/19 06:21:14;;;;;;;27.58;4.47;;;;;;;10.69;100.00;98319.22;5022157;28;20075;-40
2022/12/19 06:23:43;;;;;;;15.02;3.80;;;;;;;10.69;100.00;98314.47;5026986;28;20057;-41
2022/12/19 06:26:12;;;;;;;22.98;4.55;;;;;;;10.70;100.00;98309.69;5026765;28;20061;-43
2022/12/19 06:28:45;;;;;;;26.63;4.30;;;;;;;10.70;100.00;98318.78;5025723;28;20518;-41
2022/12/19 06:31:12;;;;;;;22.45;4.13;;;;;;;10.71;100.00;98317.63;5026217;28;20053;-41
2022/12/19 06:33:39;;;;;;;22.25;4.60;;;;;;;10.74;100.00;98310.47;5026599;28;20041;-42
2022/12/19 06:36:19;;;;;;;21.70;4.10;;;;;;;10.77;100.00;98309.69;5024848;28;20052;-40
2022/12/19 06:38:47;;;;;;;19.27;4.05;;;;;;;10.77;100.00;98298.59;5027139;28;20525;-41
2022/12/19 06:44:01;;;;;;;11.82;2.38;;;;;;;10.80;100.00;98297.78;5026346;28;20483;-46
2022/12/19 06:46:27;;;;;;;17.23;3.20;;;;;;;10.83;100.00;98308.03;5026574;28;20145;-44
2022/12/19 06:48:54;;;;;;;20.20;4.13;;;;;;;10.85;100.00;98297.38;5026506;28;20041;-41
2022/12/19 06:51:21;;;;;;;14.77;2.97;;;;;;;10.87;100.00;98292.19;5008169;28;20112;-41
2022/12/19 06:53:48;;;;;;;10.50;3.88;;;;;;;10.90;100.00;98296.94;5026365;28;20049;-41
2022/12/19 06:56:15;;;;;;;12.82;2.33;;;;;;;10.90;100.00;98305.22;5026605;28;20053;-44
2022/12/19 06:58:42;;;;;;;9.10;3.22;;;;;;;10.93;100.00;98296.13;5021337;28;20050;-41
2022/12/19 07:01:39;;;;;;;15.88;3.10;;;;;;;10.94;100.00;98297.69;5026684;28;20317;-42
2022/12/19 07:04:09;;;;;;;11.60;2.42;;;;;;;10.94;100.00;98289.38;4970496;28;20170;-41
2022/12/19 07:06:37;;;;;;;19.25;4.00;;;;;;;10.95;100.00;98297.28;5010317;28;20519;-41
2022/12/19 07:09:04;;;;;;;18.73;3.55;;;;;;;10.96;100.00;98295.31;5009843;28;20046;-40
2022/12/19 07:11:31;;;;;;;18.95;2.97;;;;;;;10.95;100.00;98288.97;5010404;28;20042;-40
2022/12/19 07:13:57;;;;;;;24.10;6.15;;;;;;;10.95;100.00;98272.38;5010231;28;20050;-41
2022/12/19 07:16:26;;;;;;;13.05;3.67;;;;;;;10.93;100.00;98277.50;5005508;28;20074;-41
2022/12/19 07:18:53;;;;;;;17.67;5.28;;;;;;;10.99;100.00;98267.56;5007730;28;20499;-45
2022/12/19 07:21:21;;;;;;;15.05;2.83;;;;;;;11.01;100.00;98275.50;4995725;28;20038;-40
2022/12/19 07:23:47;;;;;;;13.77;2.47;;;;;;;11.03;100.00;98284.16;5009403;28;20042;-41
2022/12/19 07:26:14;;;;;;;12.85;2.90;;;;;;;11.02;100.00;98285.34;5009188;28;20040;-41
2022/12/19 07:28:44;;;;;;;12.85;3.45;;;;;;;11.03;100.00;98289.72;5010265;28;20096;-40
2022/12/19 07:31:10;;;;;;;17.77;2.78;;;;;;;11.03;100.00;98273.09;5009771;28;20438;-42
2022/12/19 07:33:37;;;;;;;14.18;2.47;;;;;;;11.04;100.00;98291.25;5010427;28;20053;-43
2022/12/19 07:36:04;;;;;;;19.92;3.80;;;;;;;11.04;100.00;98282.97;5009915;28;20046;-41
2022/12/19 07:38:31;;;;;;;20.00;4.10;;;;;;;11.05;100.00;98292.84;5010467;28;20048;-40
2022/12/19 07:41:01;;;;;;;11.88;2.30;;;;;;;11.06;100.00;98291.66;5009566;28;20522;-47
2022/12/19 07:43:27;;;;;;;13.60;2.28;;;;;;;11.07;100.00;98284.91;4998381;28;20287;-40
2022/12/19 07:45:55;;;;;;;13.20;2.83;;;;;;;11.07;100.00;98265.53;5009012;28;20141;-42
2022/12/19 07:48:22;;;;;;;9.93;1.58;;;;;;;11.11;100.00;98268.28;5010173;28;20065;-40
2022/12/19 07:50:49;;;;;;;6.57;1.67;;;;;;;11.13;100.00;98288.84;5009873;28;20522;-41
2022/12/19 07:53:16;;;;;;;5.72;1.55;;;;;;;11.16;100.00;98282.47;5009695;28;20411;-42
2022/12/19 07:55:42;;;;;;;7.78;2.08;;;;;;;11.18;100.00;98285.63;5008211;28;20045;-40
2022/12/19 07:58:09;;;;;;;11.95;1.45;;;;;;;11.19;100.00;98289.97;4999194;28;20439;-40
2022/12/19 08:00:36;;;;;;;8.68;1.75;;;;;;;11.19;100.00;98298.28;5007845;28;20060;-41
2022/12/19 08:03:03;;;;;;;12.70;2.10;;;;;;;11.21;100.00;98311.72;5003120;28;20136;-41
2022/12/19 08:05:30;;;;;;;10.65;1.42;;;;;;;11.21;100.00;98298.66;5011423;28;20042;-41
2022/12/19 08:07:57;;;;;;;5.07;0.98;;;;;;;11.25;100.00;98291.09;5011912;28;20060;-41
2022/12/19 08:10:23;;;;;;;4.32;1.42;;;;;;;11.33;100.00;98283.53;4998600;28;20042;-42
2022/12/19 08:12:50;;;;;;;8.93;1.30;;;;;;;11.44;100.00;98273.91;4994179;28;20054;-41
2022/12/19 08:15:17;;;;;;;4.95;1.10;;;;;;;11.60;100.00;98278.88;4997907;28;20345;-42
2022/12/19 08:17:44;;;;;;;6.32;1.50;;;;;;;11.71;100.00;98276.81;5010718;28;20053;-44
2022/12/19 08:20:12;;;;;;;21.35;3.25;;;;;;;11.70;100.00;98289.13;5002302;28;20104;-41
2022/12/19 08:22:38;;;;;;;12.10;2.90;;;;;;;11.60;100.00;98279.69;5010857;28;20050;-40
2022/12/19 08:25:06;;;;;;;24.05;3.90;;;;;;;11.53;100.00;98278.97;5010891;28;20038;-42
2022/12/19 08:27:33;;;;;;;19.42;3.53;;;;;;;11.46;100.00;98290.88;5011802;28;20088;-48
2022/12/19 08:30:00;;;;;;;14.65;3.53;;;;;;;11.41;100.00;98279.50;5009916;28;20100;-40
2022/12/19 08:32:27;;;;;;;8.70;1.70;;;;;;;11.37;100.00;98276.75;5011041;28;20053;-40
2022/12/19 08:34:55;;;;;;;14.88;2.47;;;;;;;11.40;100.00;98258.53;5010469;28;20423;-42
2022/12/19 08:37:22;;;;;;;8.35;1.65;;;;;;;11.44;100.00;98279.44;5011097;28;20054;-40
2022/12/19 08:39:48;;;;;;;9.77;1.75;;;;;;;11.46;100.00;98282.59;5010883;28;20470;-40
2022/12/19 08:42:18;;;;;;;21.73;3.47;;;;;;;11.47;100.00;98278.63;5010543;28;20125;-40
2022/12/19 08:44:44;;;;;;;12.10;0.95;;;;;;;11.50;100.00;98268.69;5010535;28;20392;-39
2022/12/19 08:47:11;;;;;;;6.80;1.48;;;;;;;11.60;100.00;98259.47;5010797;28;20053;-42
2022/12/19 08:49:38;;;;;;;8.95;2.00;;;;;;;11.63;100.00;98265.00;5010382;28;20042;-41
2022/12/19 08:52:04;;;;;;;4.82;1.70;;;;;;;11.67;100.00;98255.88;5006402;28;20376;-42
2022/12/19 08:54:31;;;;;;;11.93;1.80;;;;;;;11.69;100.00;98264.56;5010578;28;20140;-42
2022/12/19 08:56:58;;;;;;;6.28;1.83;;;;;;;11.70;100.00;98266.97;5010627;28;20198;-41
2022/12/19 08:59:25;;;;;;;17.38;2.30;;;;;;;11.75;100.00;98254.63;5009079;28;20390;-41
2022/12/19 09:01:58;;;;;;;;;;;;;;;11.75;100.00;98251.84;5016793;28;20046;-41
2022/12/19 09:04:25;;;;;;;6.70;1.50;;;;;;;11.76;100.00;98251.41;5027560;28;20362;-41
2022/12/19 09:07:12;;;;;;;10.80;2.15;;;;;;;11.76;100.00;98247.84;5024337;28;20518;-40
2022/12/19 09:09:42;;;;;;;7.35;2.38;;;;;;;11.74;100.00;98239.19;5012369;28;20136;-47
2022/12/19 09:12:08;;;;;;;15.23;2.70;;;;;;;11.71;100.00;98242.78;5029532;28;20050;-48
2022/12/19 09:14:35;;;;;;;17.92;3.13;;;;;;;11.68;100.00;98238.81;5029319;28;20446;-41
2022/12/19 09:17:02;;;;;;;10.68;2.83;;;;;;;11.70;100.00;98238.44;5027923;28;20041;-46
2022/12/19 09:19:30;;;;;;;8.20;1.80;;;;;;;11.71;100.00;98238.03;5028501;28;20045;-45
2022/12/19 09:21:57;;;;;;;12.77;1.80;;;;;;;11.74;100.00;98241.94;5029648;28;20077;-41
2022/12/19 09:24:24;;;;;;;11.55;2.28;;;;;;;11.75;100.00;98236.00;5028373;28;20419;-41
2022/12/19 09:26:51;;;;;;;6.68;1.50;;;;;;;11.77;100.00;98230.03;5009565;28;20061;-43
2022/12/19 09:29:18;;;;;;;7.57;1.70;;;;;;;11.82;100.00;98237.91;5024819;28;20163;-42
2022/12/19 09:31:50;;;;;;;6.07;1.60;;;;;;;11.86;100.00;98231.09;5029324;28;20045;-42
2022/12/19 09:34:25;;;;;;;7.95;1.73;;;;;;;11.89;100.00;98223.94;5029166;28;20041;-40
2022/12/19 09:37:09;;;;;;;21.15;2.90;;;;;;;11.91;100.00;98225.13;5029378;28;20038;-40
2022/12/19 09:39:45;;;;;;;13.63;2.70;;;;;;;11.95;100.00;98222.28;5017367;28;20056;-41
2022/12/19 09:42:38;;;;;;;20.88;5.60;;;;;;;11.97;100.00;98214.34;5028381;28;20391;-42
2022/12/19 09:45:25;;;;;;;22.58;6.35;;;;;;;11.89;100.00;98221.16;5021678;28;20049;-42
2022/12/19 09:47:59;;;;;;;39.05;8.70;;;;;;;11.79;100.00;98214.56;5029002;28;20045;-41
2022/12/19 09:50:39;;;;;;;39.38;8.15;;;;;;;11.74;100.00;98211.47;5029313;28;20076;-40
2022/12/19 09:53:18;;;;;;;37.08;7.13;;;;;;;11.69;100.00;98215.47;5029112;28;20060;-41
2022/12/19 09:55:46;;;;;;;36.17;8.18;;;;;;;11.63;100.00;98212.34;5011105;28;20048;-39
2022/12/19 09:58:31;;;;;;;55.03;11.63;;;;;;;11.60;100.00;98213.16;5027435;28;20045;-42
2022/12/19 10:01:03;;;;;;;41.72;8.35;;;;;;;11.58;100.00;98206.47;5029097;28;20096;-41
2022/12/19 10:03:43;;;;;;;45.55;8.70;;;;;;;11.54;100.00;98217.59;5028395;28;20060;-44
2022/12/19 10:06:17;;;;;;;47.00;10.00;;;;;;;11.51;100.00;98199.03;5020207;28;20660;-45
2022/12/19 10:09:12;;;;;;;49.10;11.07;;;;;;;11.49;100.00;98190.34;5028915;28;20458;-40
2022/12/19 10:12:26;;;;;;;47.30;7.78;;;;;;;11.47;100.00;98181.66;5028873;28;20045;-41
2022/12/19 10:15:29;;;;;;;37.28;8.55;;;;;;;11.43;100.00;98180.91;5027824;28;20042;-42
2022/12/19 10:18:17;;;;;;;36.28;9.25;;;;;;;11.41;100.00;98177.00;5028689;28;20049;-43
2022/12/19 10:20:52;;;;;;;31.75;6.90;;;;;;;11.37;100.00;98177.03;5028902;28;20268;-40
2022/12/19 10:23:49;;;;;;;24.67;4.78;;;;;;;11.37;100.00;98165.94;5029239;28;20041;-45
2022/12/19 10:26:15;;;;;;;25.23;4.40;;;;;;;11.36;100.00;98180.97;5027064;28;20510;-41
2022/12/19 10:29:20;;;;;;;21.15;4.35;;;;;;;11.36;100.00;98174.66;5010389;28;20490;-40
2022/12/19 10:31:58;;;;;;;41.03;6.72;;;;;;;11.35;100.00;98179.44;5016448;28;20119;-43
2022/12/19 10:34:39;;;;;;;20.00;5.72;;;;;;;11.32;100.00;98174.72;5028902;28;20130;-39
2022/12/19 10:37:28;;;;;;;23.40;5.65;;;;;;;11.29;100.00;98172.75;5028044;28;20056;-40
2022/12/19 10:40:29;;;;;;;35.30;10.07;;;;;;;11.27;100.00;98163.28;5019423;28;20045;-40
2022/12/19 10:43:04;;;;;;;28.77;5.22;;;;;;;11.24;100.00;98148.28;5028477;28;20073;-42
2022/12/19 10:45:47;;;;;;;38.92;7.95;;;;;;;11.23;100.00;98138.38;5028792;28;20042;-41
2022/12/19 10:48:19;;;;;;;31.25;6.40;;;;;;;11.26;100.00;98140.34;5028933;28;20114;-41
2022/12/19 10:50:56;;;;;;;23.42;5.10;;;;;;;11.29;100.00;98138.72;5028100;28;20045;-42
2022/12/19 10:53:28;;;;;;;27.95;5.20;;;;;;;11.31;100.00;98139.09;5028231;28;20372;-41
2022/12/19 10:56:19;;;;;;;26.15;5.53;;;;;;;11.31;100.00;98137.13;5028184;28;20076;-44
2022/12/19 10:58:56;;;;;;;35.75;7.40;;;;;;;11.31;100.00;98123.25;5025435;28;20058;-40
2022/12/19 11:01:32;;;;;;;23.38;4.60;;;;;;;11.32;100.00;98124.06;5011521;28;20045;-45
2022/12/19 11:04:31;;;;;;;48.05;6.30;;;;;;;11.33;100.00;98131.19;5024590;28;20046;-41
2022/12/19 11:07:01;;;;;;;25.17;4.15;;;;;;;11.32;100.00;98129.59;5025551;28;20064;-41
2022/12/19 11:09:35;;;;;;;16.48;3.08;;;;;;;11.32;100.00;98119.31;5028741;28;20053;-43
2022/12/19 11:12:11;;;;;;;17.13;2.95;;;;;;;11.34;100.00;98116.91;5027809;28;20056;-44
2022/12/19 11:15:12;;;;;;;10.32;2.65;;;;;;;11.36;100.00;98103.41;5028197;28;20557;-41
2022/12/19 11:18:07;;;;;;;9.90;2.63;;;;;;;11.38;100.00;98100.25;5028642;28;20049;-43
2022/12/19 11:21:09;;;;;;;7.60;1.60;;;;;;;11.39;100.00;98097.06;5028778;28;20054;-44
2022/12/19 11:24:10;;;;;;;4.85;1.40;;;;;;;11.41;100.00;98100.19;5016738;28;20050;-42
2022/12/19 11:26:57;;;;;;;9.75;1.50;;;;;;;11.43;100.00;98085.94;5024588;28;20037;-43
2022/12/19 11:29:48;;;;;;;6.13;1.65;;;;;;;11.45;100.00;98086.31;5028018;28;20080;-41
2022/12/19 11:32:39;;;;;;;5.50;1.83;;;;;;;11.45;100.00;98089.84;5026803;28;20065;-41
2022/12/19 11:35:21;;;;;;;4.22;1.42;;;;;;;11.47;100.00;98081.13;5028255;28;20107;-42
2022/12/19 11:37:57;;;;;;;6.43;1.50;;;;;;;11.47;100.00;98076.38;5028036;28;20049;-40
2022/12/19 11:40:32;;;;;;;13.23;4.20;;;;;;;11.47;100.00;98070.84;5027511;28;20045;-43
2022/12/19 11:43:07;;;;;;;3.25;1.52;;;;;;;11.48;100.00;98077.94;5015524;28;20034;-42
2022/12/19 11:46:07;;;;;;;4.22;1.45;;;;;;;11.49;100.00;98057.34;5028160;28;20065;-44
2022/12/19 11:48:47;;;;;;;7.95;1.50;;;;;;;11.51;100.00;98060.50;5029691;28;20044;-44
2022/12/19 11:51:23;;;;;;;4.95;1.65;;;;;;;11.53;100.00;98054.53;5019723;28;20053;-44